Qu'Appelle, Canada
Current Conditions -  °F | °C
As of 4:00 AM on Thursday 18 Dec 2014 (Local Time) from CYQR Reporting Station
Overcast Overcast  
Wind Chill: -15°   Ceiling: 600
Heat Index: -8°   Visibility: 10mi
Dew Point: -8°   Wind: 13mph
Humidity: 100%   Direction: 170°S
Pressure: 29.99"   Gusts: NA
Location:  50.53°N, 103.87°W
Report Text: CYQR 181000Z 17011KT 10SM OVC006 M08/M08 A2999 RMK SF8 SLP196
Loading
Personal Weather Stations






























Interactive Weather Map New forecast layout! Learn more

10-Day Weather Forecast

Advertisements
Track Severe Weather on mobile